createdAt,value
2022-11-09T00:00:45.274Z,61.00
2022-11-09T00:03:13.096Z,61.20
2022-11-09T00:05:40.186Z,61.50
2022-11-09T00:08:07.725Z,61.60
2022-11-09T00:10:34.643Z,61.50
2022-11-09T00:13:01.706Z,61.60
2022-11-09T00:15:34.189Z,61.60
2022-11-09T00:18:02.954Z,61.70
2022-11-09T00:20:29.964Z,61.50
2022-11-09T00:23:00.372Z,61.70
2022-11-09T00:25:37.485Z,61.90
2022-11-09T00:28:04.675Z,62.10
2022-11-09T00:30:31.688Z,62.10
2022-11-09T00:33:02.450Z,62.30
2022-11-09T00:35:29.454Z,62.60
2022-11-09T00:37:56.354Z,62.80
2022-11-09T00:40:23.376Z,62.90
2022-11-09T00:42:50.436Z,62.80
2022-11-09T00:45:17.742Z,62.40
2022-11-09T00:47:44.791Z,62.20
2022-11-09T00:50:13.742Z,62.20
2022-11-09T00:52:41.755Z,62.20
2022-11-09T00:55:09.040Z,62.60
2022-11-09T00:57:36.044Z,62.80
2022-11-09T01:00:05.608Z,62.50
2022-11-09T01:02:35.015Z,62.50
2022-11-09T01:05:01.892Z,62.50
2022-11-09T01:07:28.864Z,62.50
2022-11-09T01:09:55.784Z,62.70
2022-11-09T01:12:22.745Z,62.90
2022-11-09T01:14:49.672Z,62.90
2022-11-09T01:17:16.516Z,63.00
2022-11-09T01:19:43.810Z,62.90
2022-11-09T01:22:13.015Z,63.00
2022-11-09T01:24:39.972Z,63.00
2022-11-09T01:27:07.264Z,62.90
2022-11-09T01:29:37.288Z,62.80
2022-11-09T01:32:04.368Z,62.60
2022-11-09T01:34:31.397Z,62.50
2022-11-09T01:36:59.148Z,62.40
2022-11-09T01:39:26.157Z,62.40
2022-11-09T01:41:53.120Z,62.40
2022-11-09T01:44:20.219Z,62.50
2022-11-09T01:46:47.382Z,62.50
2022-11-09T01:49:26.626Z,62.60
2022-11-09T01:51:55.062Z,62.80
2022-11-09T01:54:26.613Z,62.80
2022-11-09T01:56:55.350Z,62.80
2022-11-09T01:59:22.972Z,62.90
2022-11-09T02:01:49.855Z,63.00
2022-11-09T02:04:20.060Z,63.10
2022-11-09T02:06:47.034Z,63.20
2022-11-09T02:09:22.095Z,63.40
2022-11-09T02:11:49.106Z,63.60
2022-11-09T02:14:15.999Z,63.70
2022-11-09T02:16:43.176Z,63.50
2022-11-09T02:19:10.094Z,63.60
2022-11-09T02:21:36.980Z,63.70
2022-11-09T02:24:04.099Z,63.60
2022-11-09T02:26:36.678Z,63.40
2022-11-09T02:29:06.025Z,63.50
2022-11-09T02:31:34.580Z,63.40
2022-11-09T02:34:23.219Z,63.50
2022-11-09T02:36:52.476Z,63.60
2022-11-09T02:39:20.395Z,63.80
2022-11-09T02:41:48.522Z,64.90
2022-11-09T02:44:16.394Z,64.40
2022-11-09T02:46:44.752Z,64.40
2022-11-09T02:49:11.747Z,64.40
2022-11-09T02:51:38.964Z,64.20
2022-11-09T02:54:05.993Z,64.40
2022-11-09T02:56:32.934Z,64.20
2022-11-09T02:58:59.779Z,63.80
2022-11-09T03:01:26.923Z,63.80
2022-11-09T03:03:54.385Z,64.00
2022-11-09T03:06:21.303Z,64.20
2022-11-09T03:08:48.245Z,64.30
2022-11-09T03:11:15.482Z,64.20
2022-11-09T03:13:42.350Z,63.90
2022-11-09T03:16:09.487Z,63.70
2022-11-09T03:18:36.562Z,64.00
2022-11-09T03:21:03.978Z,64.20
2022-11-09T03:23:31.177Z,64.30
2022-11-09T03:25:58.074Z,64.40
2022-11-09T03:28:24.981Z,64.30
2022-11-09T03:30:51.900Z,64.10
2022-11-09T03:33:19.125Z,63.90
2022-11-09T03:35:46.165Z,63.90
2022-11-09T03:38:13.609Z,64.40
2022-11-09T03:40:40.558Z,64.60
2022-11-09T03:43:07.469Z,65.30
2022-11-09T03:45:34.391Z,64.70
2022-11-09T03:48:01.367Z,64.80
2022-11-09T03:50:28.836Z,64.70
2022-11-09T03:52:56.636Z,64.60
2022-11-09T03:55:23.807Z,64.70
2022-11-09T03:57:50.714Z,64.70
2022-11-09T04:00:18.376Z,65.00
2022-11-09T04:02:45.285Z,65.00
2022-11-09T04:05:12.406Z,65.20
2022-11-09T04:07:39.591Z,65.30
2022-11-09T04:10:06.706Z,65.20
2022-11-09T04:12:33.618Z,65.10
2022-11-09T04:15:00.580Z,64.90
2022-11-09T04:17:27.507Z,64.70
2022-11-09T04:19:54.393Z,64.80
2022-11-09T04:22:21.257Z,64.90
2022-11-09T04:24:48.283Z,64.90
2022-11-09T04:27:15.655Z,64.50
2022-11-09T04:29:42.803Z,64.70
2022-11-09T04:32:09.737Z,64.80
2022-11-09T04:34:36.605Z,64.80
2022-11-09T04:37:03.505Z,64.80
2022-11-09T04:39:30.476Z,64.80
2022-11-09T04:41:58.024Z,64.60
2022-11-09T04:44:25.110Z,64.90
2022-11-09T04:46:53.569Z,65.30
2022-11-09T04:49:20.595Z,65.40
2022-11-09T04:51:47.539Z,65.30
2022-11-09T04:54:14.485Z,64.90
2022-11-09T04:56:41.481Z,64.70
2022-11-09T04:59:08.438Z,64.50
2022-11-09T05:01:35.326Z,64.30
2022-11-09T05:04:02.248Z,64.10
2022-11-09T05:06:32.251Z,64.10
2022-11-09T05:08:59.799Z,64.50
2022-11-09T05:11:27.052Z,64.90
2022-11-09T05:13:54.044Z,65.30
2022-11-09T05:16:21.080Z,65.60
2022-11-09T05:18:48.187Z,65.80
2022-11-09T05:21:15.103Z,66.00
2022-11-09T05:24:00.554Z,66.20
2022-11-09T05:26:31.967Z,66.40
2022-11-09T05:28:59.425Z,66.20
2022-11-09T05:31:26.853Z,65.90
2022-11-09T05:33:55.380Z,65.80
2022-11-09T05:36:22.307Z,65.80
2022-11-09T05:38:49.625Z,65.70
2022-11-09T05:41:16.589Z,65.60
2022-11-09T05:43:45.022Z,65.70
2022-11-09T05:46:15.222Z,66.10
2022-11-09T05:48:42.405Z,66.40
2022-11-09T05:51:09.716Z,66.20
2022-11-09T05:53:36.661Z,66.70
2022-11-09T05:56:10.637Z,67.00
2022-11-09T05:58:38.964Z,67.30
2022-11-09T06:01:06.549Z,67.60
2022-11-09T06:03:33.439Z,67.60
2022-11-09T06:06:06.832Z,67.40
2022-11-09T06:08:35.226Z,67.40
2022-11-09T06:11:06.554Z,67.30
2022-11-09T06:13:33.474Z,67.20
2022-11-09T06:16:00.993Z,67.10
2022-11-09T06:18:28.567Z,66.80
2022-11-09T06:20:55.940Z,66.90
2022-11-09T06:23:26.083Z,66.60
2022-11-09T06:25:53.661Z,66.70
2022-11-09T06:28:20.711Z,67.00
2022-11-09T06:30:47.677Z,67.30
2022-11-09T06:33:14.566Z,67.40
2022-11-09T06:35:41.810Z,67.60
2022-11-09T06:38:09.083Z,67.70
2022-11-09T06:40:37.298Z,68.10
2022-11-09T06:43:04.171Z,67.50
2022-11-09T06:45:31.391Z,67.80
2022-11-09T06:47:58.669Z,67.60
2022-11-09T06:50:26.078Z,67.00
2022-11-09T06:52:55.951Z,66.50
2022-11-09T06:55:22.815Z,65.70
2022-11-09T06:57:52.379Z,65.30
2022-11-09T07:00:20.637Z,65.00
2022-11-09T07:02:47.540Z,64.80
2022-11-09T07:05:14.444Z,64.50
2022-11-09T07:07:44.256Z,64.30
2022-11-09T07:10:11.227Z,64.10
2022-11-09T07:12:38.136Z,63.50
2022-11-09T07:15:05.199Z,62.80
2022-11-09T07:17:32.450Z,62.20
2022-11-09T07:19:59.410Z,61.20
2022-11-09T07:22:29.547Z,60.50
2022-11-09T07:24:56.482Z,58.90
2022-11-09T07:27:27.471Z,56.40
2022-11-09T07:29:55.805Z,54.70
2022-11-09T07:32:35.502Z,53.50
2022-11-09T07:35:10.027Z,52.80
2022-11-09T07:38:02.645Z,51.60
2022-11-09T07:40:29.786Z,50.60
2022-11-09T07:43:00.315Z,46.90
2022-11-09T07:45:27.953Z,43.80
2022-11-09T07:47:55.683Z,41.20
2022-11-09T07:50:22.623Z,39.70
2022-11-09T07:52:49.788Z,37.20
2022-11-09T07:55:17.816Z,35.60
2022-11-09T07:57:44.823Z,34.20
2022-11-09T08:00:12.317Z,33.50
2022-11-09T08:02:39.217Z,32.60
2022-11-09T08:05:06.647Z,32.40
2022-11-09T08:07:34.551Z,31.80
2022-11-09T08:10:01.419Z,31.10
2022-11-09T08:12:31.730Z,30.90
2022-11-09T08:15:04.024Z,30.80
2022-11-09T08:17:31.515Z,30.50
2022-11-09T08:19:58.391Z,30.00
2022-11-09T08:22:25.234Z,29.60
2022-11-09T08:24:52.265Z,29.00
2022-11-09T08:27:21.258Z,28.70
2022-11-09T08:29:48.114Z,28.50
2022-11-09T08:32:15.040Z,28.30
2022-11-09T08:34:42.108Z,28.10
2022-11-09T08:37:09.697Z,27.60
2022-11-09T08:39:36.911Z,27.50
2022-11-09T08:42:04.271Z,27.50
2022-11-09T08:44:31.504Z,27.70
2022-11-09T08:46:58.527Z,27.80
2022-11-09T08:49:25.636Z,27.90
2022-11-09T08:51:54.632Z,27.90
2022-11-09T08:54:21.510Z,27.70
2022-11-09T08:56:48.660Z,27.80
2022-11-09T08:59:15.547Z,27.50
2022-11-09T09:01:42.547Z,27.50
2022-11-09T09:04:09.545Z,27.40
2022-11-09T09:06:36.458Z,27.20
2022-11-09T09:09:03.482Z,27.30
2022-11-09T09:11:30.360Z,27.30
2022-11-09T09:14:00.386Z,27.00
2022-11-09T09:16:27.288Z,26.90
2022-11-09T09:18:55.441Z,27.10
2022-11-09T09:21:23.614Z,27.10
2022-11-09T09:23:50.963Z,27.00
2022-11-09T09:26:18.007Z,26.90
2022-11-09T09:28:45.807Z,26.50
2022-11-09T09:31:17.297Z,26.50
2022-11-09T09:33:45.744Z,26.50
2022-11-09T09:36:16.636Z,26.20
2022-11-09T09:38:43.521Z,26.10
2022-11-09T09:41:16.703Z,25.70
2022-11-09T09:43:44.327Z,25.60
2022-11-09T09:46:18.040Z,25.40
2022-11-09T09:48:52.076Z,25.10
2022-11-09T09:51:20.807Z,25.20
2022-11-09T09:53:53.466Z,25.00
2022-11-09T09:56:31.244Z,25.10
2022-11-09T09:59:16.848Z,24.90
2022-11-09T10:01:45.129Z,24.80
2022-11-09T10:04:18.245Z,24.70
2022-11-09T10:06:59.885Z,24.80
2022-11-09T10:09:47.467Z,24.80
2022-11-09T10:12:20.263Z,25.30
2022-11-09T10:14:47.210Z,25.30
2022-11-09T10:17:43.535Z,25.20
2022-11-09T10:20:31.789Z,25.20
2022-11-09T10:23:04.998Z,25.30
2022-11-09T10:25:57.907Z,25.00
2022-11-09T10:28:19.965Z,24.80
2022-11-09T10:30:47.100Z,24.80
2022-11-09T10:33:18.466Z,24.80
2022-11-09T10:35:46.431Z,24.90
2022-11-09T10:38:18.641Z,24.70
2022-11-09T10:40:57.460Z,24.90
2022-11-09T10:43:24.655Z,24.80
2022-11-09T10:46:04.905Z,24.60
2022-11-09T10:48:34.081Z,24.80
2022-11-09T10:51:02.691Z,24.90
2022-11-09T10:53:39.587Z,24.80
2022-11-09T10:56:20.760Z,24.80
2022-11-09T10:58:51.382Z,24.60
2022-11-09T11:01:25.606Z,25.00
2022-11-09T11:03:54.126Z,24.80
2022-11-09T11:06:41.399Z,24.60
2022-11-09T11:09:08.290Z,24.80
2022-11-09T11:11:36.911Z,25.10
2022-11-09T11:14:23.030Z,25.00
2022-11-09T11:16:52.677Z,24.70
2022-11-09T11:19:35.097Z,24.70
2022-11-09T11:22:11.153Z,24.50
2022-11-09T11:24:47.085Z,24.40
2022-11-09T11:27:21.951Z,24.10
2022-11-09T11:29:56.406Z,24.00
2022-11-09T11:32:23.336Z,24.50
2022-11-09T11:35:05.480Z,23.80
2022-11-09T11:37:41.465Z,23.40
2022-11-09T11:40:10.157Z,23.20
2022-11-09T11:42:40.546Z,22.90
2022-11-09T11:45:38.878Z,22.80
2022-11-09T11:48:07.799Z,22.70
2022-11-09T11:50:49.079Z,23.00
2022-11-09T11:53:25.682Z,23.00
2022-11-09T11:56:08.062Z,22.60
2022-11-09T11:58:53.547Z,22.80
2022-11-09T12:01:40.072Z,22.80
2022-11-09T12:04:13.549Z,22.80
2022-11-09T12:06:58.782Z,22.70
2022-11-09T12:09:32.464Z,22.50
2022-11-09T12:12:08.534Z,21.90
2022-11-09T12:14:38.430Z,22.00
2022-11-09T12:17:08.363Z,22.20
2022-11-09T12:19:38.686Z,22.10
2022-11-09T12:22:12.091Z,22.20
2022-11-09T12:25:00.807Z,22.40
2022-11-09T12:27:46.992Z,22.40
2022-11-09T12:30:17.881Z,22.70
2022-11-09T12:32:52.794Z,22.80
2022-11-09T12:35:38.203Z,22.80
2022-11-09T12:38:19.047Z,22.70
2022-11-09T12:40:52.259Z,22.40
2022-11-09T12:43:31.181Z,21.70
2022-11-09T12:45:58.521Z,21.30
2022-11-09T12:48:25.753Z,21.30
2022-11-09T12:50:53.016Z,20.80
2022-11-09T12:53:20.543Z,20.70
2022-11-09T12:55:50.045Z,21.00
2022-11-09T12:58:24.570Z,21.00
2022-11-09T13:00:54.004Z,21.10
2022-11-09T13:03:24.528Z,21.20
2022-11-09T13:06:08.653Z,21.60
2022-11-09T13:08:35.802Z,21.50
2022-11-09T13:11:19.216Z,21.60
2022-11-09T13:13:46.411Z,22.30
2022-11-09T13:16:33.508Z,22.10
2022-11-09T13:19:00.653Z,21.60
2022-11-09T13:21:38.354Z,21.80
2022-11-09T13:24:31.427Z,21.90
2022-11-09T13:26:59.626Z,21.30
2022-11-09T13:29:26.631Z,21.30
2022-11-09T13:32:09.140Z,21.60
2022-11-09T13:34:50.721Z,21.80
2022-11-09T13:37:36.510Z,21.70
2022-11-09T13:40:22.165Z,22.00
2022-11-09T13:43:09.576Z,21.70
2022-11-09T13:45:44.364Z,22.10
2022-11-09T13:48:50.408Z,22.60
2022-11-09T13:51:20.637Z,22.70
2022-11-09T13:53:55.357Z,22.70
2022-11-09T13:56:52.940Z,22.80
2022-11-09T13:59:29.402Z,23.00
2022-11-09T14:02:30.257Z,23.40
2022-11-09T14:04:57.215Z,23.90
2022-11-09T14:07:40.611Z,24.20
2022-11-09T14:10:14.459Z,24.70
2022-11-09T14:13:03.903Z,25.10
2022-11-09T14:15:42.931Z,25.50
2022-11-09T14:18:15.509Z,25.50
2022-11-09T14:21:08.786Z,25.80
2022-11-09T14:23:35.996Z,26.20
2022-11-09T14:26:09.210Z,27.00
2022-11-09T14:28:39.292Z,27.70
2022-11-09T14:31:06.489Z,28.20
2022-11-09T14:33:41.103Z,28.60
2022-11-09T14:36:11.137Z,29.10
2022-11-09T14:41:50.197Z,29.70
2022-11-09T14:44:27.669Z,30.80
2022-11-09T14:46:55.343Z,32.00
2022-11-09T14:49:24.603Z,32.70
2022-11-09T14:51:51.746Z,33.30
2022-11-09T14:54:19.978Z,33.70
2022-11-09T14:56:47.037Z,34.10
2022-11-09T14:59:16.011Z,34.80
2022-11-09T15:01:56.531Z,35.40
2022-11-09T15:04:23.956Z,35.80
2022-11-09T15:06:52.056Z,36.40
2022-11-09T15:09:19.779Z,36.80
2022-11-09T15:11:47.025Z,37.10
2022-11-09T15:14:19.770Z,37.50
2022-11-09T15:16:47.131Z,38.00
2022-11-09T15:19:30.947Z,38.50
2022-11-09T15:21:58.054Z,39.30
2022-11-09T15:24:25.818Z,39.10
2022-11-09T15:26:53.116Z,39.40
2022-11-09T15:29:37.491Z,40.20
2022-11-09T15:32:10.719Z,40.70
2022-11-09T15:34:40.877Z,41.10
2022-11-09T15:37:20.026Z,41.70
2022-11-09T15:39:47.025Z,42.10
2022-11-09T15:42:14.382Z,42.30
2022-11-09T15:44:58.687Z,42.60
2022-11-09T15:47:42.039Z,42.80
2022-11-09T15:50:22.322Z,43.00
2022-11-09T15:52:51.352Z,42.60
2022-11-09T15:55:22.071Z,42.80
2022-11-09T15:57:50.117Z,43.40
2022-11-09T16:00:20.829Z,43.80
2022-11-09T16:02:48.341Z,43.70
2022-11-09T16:05:16.004Z,43.10
2022-11-09T16:07:53.311Z,43.80
2022-11-09T16:10:23.858Z,44.00
2022-11-09T16:12:56.229Z,44.20
2022-11-09T16:15:23.727Z,44.20
2022-11-09T16:17:51.439Z,44.50
2022-11-09T16:20:19.052Z,44.40
2022-11-09T16:22:46.289Z,44.80
2022-11-09T16:25:13.359Z,45.10
2022-11-09T16:27:50.040Z,45.00
2022-11-09T16:30:17.791Z,44.80
2022-11-09T16:32:44.883Z,45.30
2022-11-09T16:35:28.369Z,45.70
2022-11-09T16:37:56.203Z,46.00
2022-11-09T16:40:23.830Z,46.00
2022-11-09T16:42:54.693Z,46.10
2022-11-09T16:45:32.012Z,46.30
2022-11-09T16:48:01.571Z,46.40
2022-11-09T16:50:28.803Z,46.60
2022-11-09T16:52:55.870Z,46.70
2022-11-09T16:55:25.586Z,46.80
2022-11-09T16:57:52.834Z,46.90
2022-11-09T17:00:25.626Z,47.00
2022-11-09T17:03:07.623Z,47.00
2022-11-09T17:05:34.624Z,47.30
2022-11-09T17:08:01.625Z,47.40
2022-11-09T17:10:28.714Z,47.90
2022-11-09T17:12:55.739Z,47.60
2022-11-09T17:15:22.841Z,47.70
2022-11-09T17:17:49.762Z,47.70
2022-11-09T17:20:17.178Z,48.10
2022-11-09T17:22:46.302Z,48.40
2022-11-09T17:25:13.525Z,48.60
2022-11-09T17:27:40.516Z,48.90
2022-11-09T17:30:07.814Z,48.90
2022-11-09T17:32:35.356Z,49.00
2022-11-09T17:35:02.722Z,49.10
2022-11-09T17:37:30.134Z,49.40
2022-11-09T17:39:57.329Z,49.60
2022-11-09T17:42:24.197Z,49.70
2022-11-09T17:44:51.147Z,49.80
2022-11-09T17:47:20.726Z,50.00
2022-11-09T17:49:47.626Z,50.30
2022-11-09T17:52:23.648Z,50.60
2022-11-09T17:54:52.870Z,50.90
2022-11-09T17:57:22.291Z,50.80
2022-11-09T17:59:49.329Z,50.90
2022-11-09T18:02:16.302Z,51.10
2022-11-09T18:04:43.359Z,51.20
2022-11-09T18:07:14.308Z,51.40
2022-11-09T18:09:42.512Z,51.50
2022-11-09T18:12:09.765Z,51.70
2022-11-09T18:14:36.746Z,52.10
2022-11-09T18:17:03.796Z,52.30
2022-11-09T18:19:30.755Z,52.60
2022-11-09T18:22:01.139Z,53.00
2022-11-09T18:24:42.427Z,53.00
2022-11-09T18:27:09.471Z,53.10
2022-11-09T18:29:36.785Z,53.10
2022-11-09T18:32:03.932Z,53.20
2022-11-09T18:34:30.893Z,53.50
2022-11-09T18:36:57.924Z,53.70
2022-11-09T18:39:32.406Z,53.80
2022-11-09T18:42:00.689Z,53.60
2022-11-09T18:44:27.708Z,53.90
2022-11-09T18:46:54.628Z,53.90
2022-11-09T18:49:21.933Z,54.10
2022-11-09T18:51:49.081Z,54.30
2022-11-09T18:54:17.662Z,54.20
2022-11-09T18:56:46.136Z,54.50
2022-11-09T18:59:47.984Z,54.50
2022-11-09T19:02:17.929Z,54.70
2022-11-09T19:04:47.846Z,54.60
2022-11-09T19:07:14.948Z,55.00
2022-11-09T19:09:42.512Z,55.00
2022-11-09T19:12:10.331Z,55.30
2022-11-09T19:14:41.233Z,55.60
2022-11-09T19:17:13.429Z,55.90
2022-11-09T19:19:43.179Z,56.00
2022-11-09T19:22:13.320Z,56.10
2022-11-09T19:24:40.269Z,56.70
2022-11-09T19:27:07.136Z,56.40
2022-11-09T19:29:34.008Z,56.60
2022-11-09T19:32:01.016Z,57.20
2022-11-09T19:34:28.303Z,56.40
2022-11-09T19:36:58.170Z,56.10
2022-11-09T19:39:28.392Z,56.20
2022-11-09T19:41:59.548Z,56.30
2022-11-09T19:44:26.725Z,56.30
2022-11-09T19:46:54.039Z,56.40
2022-11-09T19:49:21.015Z,56.30
2022-11-09T19:51:48.072Z,56.30
2022-11-09T19:54:15.800Z,56.70
2022-11-09T19:56:42.704Z,56.80
2022-11-09T19:59:11.080Z,56.80
2022-11-09T20:01:38.067Z,56.70
2022-11-09T20:04:09.944Z,56.80
2022-11-09T20:06:38.223Z,56.80
2022-11-09T20:09:05.292Z,56.80
2022-11-09T20:11:50.829Z,56.90
2022-11-09T20:14:18.583Z,56.90
2022-11-09T20:16:48.009Z,56.90
2022-11-09T20:19:15.266Z,57.10
2022-11-09T20:21:44.778Z,57.10
2022-11-09T20:24:12.628Z,57.10
2022-11-09T20:26:40.547Z,57.10
2022-11-09T20:29:07.562Z,57.20
2022-11-09T20:31:34.633Z,57.30
2022-11-09T20:34:02.701Z,57.50
2022-11-09T20:36:29.833Z,57.80
2022-11-09T20:38:56.889Z,57.80
2022-11-09T20:41:25.573Z,57.90
2022-11-09T20:43:52.923Z,57.80
2022-11-09T20:46:21.384Z,57.80
2022-11-09T20:48:56.164Z,57.70
2022-11-09T20:51:23.662Z,57.60
2022-11-09T20:53:50.918Z,57.70
2022-11-09T20:56:18.362Z,57.80
2022-11-09T20:58:45.331Z,58.00
2022-11-09T21:01:19.367Z,58.20
2022-11-09T21:03:46.759Z,58.40
2022-11-09T21:06:13.898Z,58.30
2022-11-09T21:08:43.455Z,58.40
2022-11-09T21:11:12.721Z,58.50
2022-11-09T21:13:41.788Z,58.40
2022-11-09T21:16:09.671Z,58.40
2022-11-09T21:18:39.058Z,58.60
2022-11-09T21:21:10.130Z,58.60
2022-11-09T21:23:55.809Z,58.50
2022-11-09T21:26:51.552Z,58.30
2022-11-09T21:29:39.640Z,58.70
2022-11-09T21:32:24.814Z,58.90
2022-11-09T21:34:51.742Z,59.40
2022-11-09T21:37:18.692Z,58.90
2022-11-09T21:39:45.578Z,59.00
2022-11-09T21:42:13.477Z,59.10
2022-11-09T21:44:40.566Z,59.10
2022-11-09T21:47:07.735Z,58.90
2022-11-09T21:49:35.468Z,58.90
2022-11-09T21:52:03.569Z,59.00
2022-11-09T21:54:30.683Z,59.20
2022-11-09T21:56:57.723Z,59.30
2022-11-09T21:59:24.599Z,59.50
2022-11-09T22:01:52.278Z,59.50
2022-11-09T22:04:19.262Z,59.40
2022-11-09T22:06:46.314Z,59.50
2022-11-09T22:09:14.740Z,59.60
2022-11-09T22:12:00.320Z,59.80
2022-11-09T22:14:45.707Z,59.90
2022-11-09T22:17:12.778Z,60.40
2022-11-09T22:20:00.489Z,60.40
2022-11-09T22:22:31.027Z,60.50
2022-11-09T22:24:59.103Z,60.50
2022-11-09T22:27:27.942Z,60.60
2022-11-09T22:29:55.377Z,60.60
2022-11-09T22:32:22.505Z,60.60
2022-11-09T22:34:49.445Z,60.50
2022-11-09T22:37:16.612Z,60.60
2022-11-09T22:39:47.249Z,60.80
2022-11-09T22:42:14.822Z,60.80
2022-11-09T22:44:42.063Z,60.70
2022-11-09T22:47:08.939Z,61.00
2022-11-09T22:49:37.053Z,61.00
2022-11-09T22:52:04.392Z,61.20
2022-11-09T22:54:32.446Z,61.30
2022-11-09T22:57:02.206Z,61.10
2022-11-09T22:59:29.026Z,61.10
2022-11-09T23:01:55.967Z,61.20
2022-11-09T23:04:22.902Z,61.30
2022-11-09T23:06:49.760Z,61.40
2022-11-09T23:09:16.768Z,61.50
2022-11-09T23:11:43.652Z,61.50
2022-11-09T23:14:12.734Z,61.20
2022-11-09T23:16:39.791Z,61.20
2022-11-09T23:19:06.712Z,61.30
2022-11-09T23:21:34.435Z,61.10
2022-11-09T23:24:02.477Z,61.10
2022-11-09T23:26:29.556Z,61.20
2022-11-09T23:28:56.668Z,61.50
2022-11-09T23:31:24.611Z,61.60
2022-11-09T23:33:52.119Z,61.70
2022-11-09T23:36:20.649Z,62.00
2022-11-09T23:38:47.677Z,61.90
2022-11-09T23:41:17.807Z,61.80
2022-11-09T23:43:48.910Z,61.70
2022-11-09T23:46:16.627Z,61.80
2022-11-09T23:48:44.215Z,61.80
2022-11-09T23:51:11.270Z,61.80
2022-11-09T23:53:38.168Z,61.80
2022-11-09T23:56:06.246Z,61.90
2022-11-09T23:58:33.181Z,62.10
